Time,TemperatureF,DewpointF,PressureIn,WindDirection,WindDirectionDegrees,WindSpeedMPH,WindSpeedGustMPH,Humidity,HourlyPrecipIn,Conditions,Clouds,dailyrainin,SoftwareType,DateUTC
2013-02-23 00:01:00,19.0,11.0,29.90,WNW,293,4.0,6.0,71,0.00,,,0.04,,2013-02-23 06:01:00,
2013-02-23 00:11:00,19.0,11.0,29.90,WNW,293,4.0,6.0,71,0.00,,,0.04,,2013-02-23 06:11:00,
2013-02-23 00:22:00,18.0,11.0,29.87,West,279,4.0,8.0,72,0.00,,,0.04,,2013-02-23 06:22:00,
2013-02-23 00:31:00,18.0,11.0,29.87,West,273,9.0,9.0,72,0.00,,,0.04,,2013-02-23 06:31:00,
2013-02-23 00:41:00,18.0,11.0,29.87,West,273,9.0,9.0,72,0.00,,,0.04,,2013-02-23 06:41:00,
2013-02-23 00:52:00,18.0,11.0,29.90,West,267,10.0,10.0,72,0.00,,,0.04,,2013-02-23 06:52:00,
2013-02-23 01:01:00,17.0,9.0,29.87,WSW,257,8.0,8.0,70,0.00,,,0.04,,2013-02-23 07:01:00,
2013-02-23 01:11:00,17.0,9.0,29.87,WSW,257,8.0,8.0,70,0.00,,,0.04,,2013-02-23 07:11:00,
2013-02-23 01:21:00,16.0,8.0,29.90,WSW,252,6.0,6.0,70,0.00,,,0.04,,2013-02-23 07:21:00,
2013-02-23 01:32:00,16.0,8.0,29.90,WNW,282,8.0,8.0,70,0.00,,,0.04,,2013-02-23 07:32:00,
2013-02-23 01:52:00,16.0,8.0,29.90,West,265,8.0,8.0,71,0.00,,,0.04,,2013-02-23 07:52:00,
2013-02-23 02:01:00,16.0,8.0,29.90,West,259,6.0,6.0,71,0.00,,,0.04,,2013-02-23 08:01:00,
2013-02-23 02:11:00,16.0,8.0,29.90,West,259,6.0,6.0,71,0.00,,,0.04,,2013-02-23 08:11:00,
2013-02-23 02:21:00,16.0,8.0,29.90,NW,304,5.0,6.0,71,0.00,,,0.04,,2013-02-23 08:21:00,
2013-02-23 02:31:00,17.0,10.0,29.87,WSW,253,5.0,8.0,72,0.00,,,0.04,,2013-02-23 08:31:00,
2013-02-23 02:41:00,17.0,10.0,29.87,WSW,253,5.0,8.0,72,0.00,,,0.04,,2013-02-23 08:41:00,
2013-02-23 02:52:00,17.0,9.0,29.87,West,276,6.0,8.0,71,0.00,,,0.04,,2013-02-23 08:52:00,
2013-02-23 03:01:00,17.0,9.0,29.87,West,259,8.0,10.0,70,0.00,,,0.04,,2013-02-23 09:01:00,
2013-02-23 03:11:00,17.0,9.0,29.87,West,259,8.0,10.0,70,0.00,,,0.04,,2013-02-23 09:11:00,
2013-02-23 03:21:00,17.0,9.0,29.87,WSW,254,5.0,13.0,70,0.00,,,0.04,,2013-02-23 09:21:00,
2013-02-23 03:31:00,17.0,9.0,29.87,WSW,250,4.0,5.0,70,0.00,,,0.04,,2013-02-23 09:31:00,
2013-02-23 03:41:00,17.0,9.0,29.87,WSW,250,4.0,5.0,70,0.00,,,0.04,,2013-02-23 09:41:00,
2013-02-23 03:52:00,17.0,9.0,29.87,NW,309,10.0,10.0,70,0.00,,,0.04,,2013-02-23 09:52:00,
2013-02-23 04:01:00,17.0,9.0,29.87,WNW,287,6.0,9.0,70,0.00,,,0.04,,2013-02-23 10:01:00,
2013-02-23 04:11:00,16.0,8.0,29.87,WNW,294,8.0,8.0,69,0.00,,,0.04,,2013-02-23 10:11:00,
2013-02-23 04:21:00,16.0,8.0,29.87,WNW,294,8.0,8.0,69,0.00,,,0.04,,2013-02-23 10:21:00,
2013-02-23 04:31:00,16.0,8.0,29.87,NW,313,8.0,8.0,69,0.00,,,0.04,,2013-02-23 10:31:00,
2013-02-23 04:41:00,16.0,8.0,29.87,NW,313,8.0,8.0,69,0.00,,,0.04,,2013-02-23 10:41:00,
2013-02-23 04:52:00,17.0,9.0,29.87,WNW,295,6.0,7.0,70,0.00,,,0.04,,2013-02-23 10:52:00,
2013-02-23 05:02:00,17.0,9.0,29.87,West,264,6.0,6.0,70,0.00,,,0.04,,2013-02-23 11:02:00,
2013-02-23 05:11:00,17.0,9.0,29.87,West,264,6.0,6.0,70,0.00,,,0.04,,2013-02-23 11:11:00,
2013-02-23 05:21:00,17.0,9.0,29.87,WSW,251,6.0,6.0,70,0.00,,,0.04,,2013-02-23 11:21:00,
2013-02-23 05:32:00,17.0,9.0,29.87,West,280,4.0,9.0,69,0.00,,,0.04,,2013-02-23 11:32:00,
2013-02-23 05:41:00,17.0,9.0,29.87,West,280,4.0,9.0,69,0.00,,,0.04,,2013-02-23 11:41:00,
2013-02-23 05:52:00,17.0,9.0,29.87,WSW,257,4.0,8.0,69,0.00,,,0.04,,2013-02-23 11:52:00,
2013-02-23 06:01:00,17.0,9.0,29.87,WSW,250,6.0,6.0,69,0.00,,,0.04,,2013-02-23 12:01:00,
2013-02-23 06:11:00,17.0,9.0,29.87,WSW,250,6.0,6.0,69,0.00,,,0.04,,2013-02-23 12:11:00,
2013-02-23 06:21:00,17.0,8.0,29.87,WSW,239,6.0,6.0,67,0.00,,,0.04,,2013-02-23 12:21:00,
2013-02-23 06:32:00,17.0,8.0,29.87,WNW,289,4.0,7.0,67,0.00,,,0.04,,2013-02-23 12:32:00,
2013-02-23 06:42:00,17.0,8.0,29.87,WNW,289,4.0,7.0,67,0.00,,,0.04,,2013-02-23 12:42:00,
2013-02-23 06:52:00,17.0,8.0,29.87,West,263,6.0,6.0,67,0.00,,,0.04,,2013-02-23 12:52:00,
2013-02-23 07:01:00,17.0,8.0,29.87,WSW,253,4.0,6.0,67,0.00,,,0.04,,2013-02-23 13:01:00,
2013-02-23 07:11:00,17.0,8.0,29.87,WSW,258,6.0,10.0,66,0.00,,,0.04,,2013-02-23 13:11:00,
2013-02-23 07:22:00,17.0,8.0,29.87,WSW,258,6.0,10.0,66,0.00,,,0.04,,2013-02-23 13:22:00,
2013-02-23 07:32:00,17.0,8.0,29.87,WSW,245,5.0,9.0,66,0.00,,,0.04,,2013-02-23 13:32:00,
2013-02-23 07:42:00,17.0,7.0,29.90,West,261,5.0,6.0,64,0.00,,,0.04,,2013-02-23 13:42:00,
2013-02-23 07:52:00,17.0,7.0,29.90,West,261,5.0,6.0,64,0.00,,,0.04,,2013-02-23 13:52:00,
2013-02-23 08:02:00,18.0,7.0,29.90,WSW,251,8.0,8.0,62,0.00,,,0.04,,2013-02-23 14:02:00,
2013-02-23 08:11:00,18.0,7.0,29.90,WSW,251,8.0,8.0,62,0.00,,,0.04,,2013-02-23 14:11:00,
2013-02-23 08:21:00,19.0,7.0,29.87,SW,230,5.0,6.0,59,0.00,,,0.04,,2013-02-23 14:21:00,
2013-02-23 08:32:00,19.0,7.0,29.87,SW,230,5.0,6.0,59,0.00,,,0.04,,2013-02-23 14:32:00,
2013-02-23 08:42:00,19.0,7.0,29.87,SW,230,5.0,6.0,59,0.00,,,0.04,,2013-02-23 14:42:00,
2013-02-23 08:52:00,19.0,6.0,29.87,West,269,8.0,8.0,56,0.00,,,0.04,,2013-02-23 14:52:00,
2013-02-23 09:01:00,20.0,6.0,29.87,West,273,4.0,6.0,55,0.00,,,0.04,,2013-02-23 15:01:00,
2013-02-23 09:11:00,20.0,6.0,29.87,West,273,4.0,6.0,55,0.00,,,0.04,,2013-02-23 15:11:00,
2013-02-23 09:21:00,21.0,6.0,29.87,WSW,238,9.0,10.0,51,0.00,,,0.04,,2013-02-23 15:21:00,
2013-02-23 09:31:00,21.0,5.0,29.87,WNW,283,10.0,10.0,50,0.00,,,0.04,,2013-02-23 15:31:00,
2013-02-23 09:41:00,21.0,5.0,29.87,WNW,283,10.0,10.0,50,0.00,,,0.04,,2013-02-23 15:41:00,
2013-02-23 09:52:00,21.0,5.0,29.87,West,264,9.0,9.0,50,0.00,,,0.04,,2013-02-23 15:52:00,
2013-02-23 10:01:00,21.0,5.0,29.87,West,267,6.0,8.0,49,0.00,,,0.04,,2013-02-23 16:01:00,
2013-02-23 10:11:00,21.0,5.0,29.87,West,267,6.0,8.0,49,0.00,,,0.04,,2013-02-23 16:11:00,
2013-02-23 10:21:00,20.0,4.0,29.90,WNW,284,6.0,10.0,49,0.00,,,0.04,,2013-02-23 16:21:00,
2013-02-23 10:31:00,22.0,5.0,29.90,West,260,9.0,14.0,47,0.00,,,0.04,,2013-02-23 16:31:00,
2013-02-23 10:42:00,22.0,5.0,29.90,West,260,9.0,14.0,47,0.00,,,0.04,,2013-02-23 16:42:00,
2013-02-23 10:51:00,23.0,5.0,29.90,West,267,10.0,10.0,45,0.00,,,0.04,,2013-02-23 16:51:00,
2013-02-23 11:01:00,22.0,4.0,29.90,WSW,247,13.0,13.0,46,0.00,,,0.04,,2013-02-23 17:01:00,
2013-02-23 11:11:00,25.0,6.0,29.90,SW,226,6.0,9.0,44,0.00,,,0.04,,2013-02-23 17:11:00,
2013-02-23 11:21:00,25.0,6.0,29.90,SW,226,6.0,9.0,44,0.00,,,0.04,,2013-02-23 17:21:00,
2013-02-23 11:31:00,29.0,9.0,29.90,WNW,292,8.0,10.0,42,0.00,,,0.04,,2013-02-23 17:31:00,
2013-02-23 11:52:00,28.0,8.0,29.90,SW,233,10.0,10.0,43,0.00,,,0.04,,2013-02-23 17:52:00,
2013-02-23 12:01:00,31.0,10.0,29.90,West,269,3.0,6.0,41,0.00,,,0.04,,2013-02-23 18:01:00,
2013-02-23 12:21:00,27.0,8.0,29.90,WNW,290,6.0,10.0,43,0.00,,,0.04,,2013-02-23 18:21:00,
2013-02-23 12:31:00,24.0,6.0,29.90,West,261,11.0,12.0,46,0.00,,,0.04,,2013-02-23 18:31:00,
2013-02-23 12:52:00,25.0,7.0,29.90,West,273,6.0,9.0,45,0.00,,,0.04,,2013-02-23 18:52:00,
2013-02-23 13:11:00,29.0,8.0,29.90,West,264,10.0,13.0,41,0.00,,,0.04,,2013-02-23 19:11:00,
2013-02-23 13:21:00,29.0,8.0,29.90,West,264,10.0,13.0,41,0.00,,,0.04,,2013-02-23 19:21:00,
2013-02-23 13:32:00,29.0,8.0,29.90,WSW,240,8.0,8.0,41,0.00,,,0.04,,2013-02-23 19:32:00,
2013-02-23 13:42:00,29.0,8.0,29.90,WSW,240,8.0,8.0,41,0.00,,,0.04,,2013-02-23 19:42:00,
2013-02-23 13:52:00,27.0,7.0,29.87,SW,225,5.0,5.0,42,0.00,,,0.04,,2013-02-23 19:52:00,
2013-02-23 14:01:00,28.0,8.0,29.87,SSW,208,8.0,9.0,42,0.00,,,0.00,,2013-02-23 20:01:00,
2013-02-23 14:21:00,27.0,8.0,29.87,WSW,246,13.0,13.0,43,0.00,,,0.00,,2013-02-23 20:21:00,
2013-02-23 14:32:00,28.0,8.0,29.87,WSW,243,8.0,10.0,42,0.00,,,0.00,,2013-02-23 20:32:00,
2013-02-23 14:52:00,26.0,7.0,29.87,WSW,257,6.0,8.0,43,0.00,,,0.00,,2013-02-23 20:52:00,
2013-02-23 15:01:00,28.0,8.0,29.87,NNW,328,6.0,9.0,43,0.00,,,0.00,,2013-02-23 21:01:00,
2013-02-23 15:11:00,27.0,8.0,29.87,WNW,285,6.0,8.0,43,0.00,,,0.00,,2013-02-23 21:11:00,
2013-02-23 15:22:00,27.0,8.0,29.87,WNW,285,6.0,8.0,43,0.00,,,0.00,,2013-02-23 21:22:00,
2013-02-23 15:31:00,29.0,9.0,29.87,WNW,303,8.0,10.0,42,0.00,,,0.00,,2013-02-23 21:31:00,
2013-02-23 15:51:00,29.0,8.0,29.87,WSW,240,8.0,8.0,41,0.00,,,0.00,,2013-02-23 21:51:00,
2013-02-23 16:01:00,29.0,8.0,29.87,SW,216,8.0,10.0,41,0.00,,,0.00,,2013-02-23 22:01:00,
2013-02-23 16:11:00,28.0,7.0,29.87,West,271,10.0,10.0,41,0.00,,,0.00,,2013-02-23 22:11:00,
2013-02-23 16:21:00,28.0,7.0,29.87,West,271,10.0,10.0,41,0.00,,,0.00,,2013-02-23 22:21:00,
2013-02-23 16:31:00,27.0,6.0,29.87,WSW,242,9.0,9.0,41,0.00,,,0.00,,2013-02-23 22:31:00,
2013-02-23 16:52:00,26.0,6.0,29.87,West,266,6.0,10.0,42,0.00,,,0.00,,2013-02-23 22:52:00,
2013-02-23 17:01:00,26.0,6.0,29.90,West,268,7.0,7.0,42,0.00,,,0.00,,2013-02-23 23:01:00,
2013-02-23 17:11:00,25.0,5.0,29.87,WSW,257,4.0,6.0,42,0.00,,,0.00,,2013-02-23 23:11:00,
2013-02-23 17:21:00,25.0,5.0,29.87,WSW,257,4.0,6.0,42,0.00,,,0.00,,2013-02-23 23:21:00,
2013-02-23 17:31:00,24.0,4.0,29.87,WSW,245,0.0,6.0,42,0.00,,,0.00,,2013-02-23 23:31:00,
2013-02-23 17:52:00,22.0,3.0,29.90,SW,231,4.0,5.0,43,0.00,,,0.00,,2013-02-23 23:52:00,
2013-02-23 18:01:00,21.0,2.0,29.90,SW,228,4.0,4.0,43,0.00,,,0.00,,2013-02-24 00:01:00,
2013-02-23 18:22:00,19.0,1.0,29.90,SW,228,0.0,0.0,44,0.00,,,0.00,,2013-02-24 00:22:00,
2013-02-23 18:32:00,18.0,0.0,29.90,SW,228,0.0,0.0,44,0.00,,,0.00,,2013-02-24 00:32:00,
2013-02-23 18:52:00,17.0,0.0,29.90,SW,228,0.0,0.0,46,0.00,,,0.00,,2013-02-24 00:52:00,
2013-02-23 19:01:00,16.0,0.0,29.90,SW,228,0.0,0.0,48,0.00,,,0.00,,2013-02-24 01:01:00,
2013-02-23 19:22:00,16.0,0.0,29.90,SW,228,0.0,0.0,49,0.00,,,0.00,,2013-02-24 01:22:00,
2013-02-23 19:31:00,14.0,-1.0,29.90,SW,228,0.0,0.0,51,0.00,,,0.00,,2013-02-24 01:31:00,
2013-02-23 19:51:00,12.0,-2.0,29.90,SW,228,0.0,0.0,52,0.00,,,0.00,,2013-02-24 01:51:00,
2013-02-23 20:01:00,11.0,-3.0,29.90,SW,228,0.0,0.0,52,0.00,,,0.00,,2013-02-24 02:01:00,
2013-02-23 20:21:00,8.0,-6.0,29.90,SW,228,4.0,4.0,52,0.00,,,0.00,,2013-02-24 02:21:00,
2013-02-23 20:32:00,8.0,-6.0,29.93,SW,228,0.0,3.0,52,0.00,,,0.00,,2013-02-24 02:32:00,
2013-02-23 20:52:00,8.0,-6.0,29.93,SW,228,0.0,0.0,52,0.00,,,0.00,,2013-02-24 02:52:00,
2013-02-23 21:01:00,8.0,-6.0,29.93,SW,228,0.0,0.0,52,0.00,,,0.00,,2013-02-24 03:01:00,
2013-02-23 21:11:00,7.0,-7.0,29.93,SW,228,0.0,0.0,52,0.00,,,0.00,,2013-02-24 03:11:00,
2013-02-23 21:21:00,7.0,-7.0,29.93,SW,228,0.0,0.0,52,0.00,,,0.00,,2013-02-24 03:21:00,
2013-02-23 21:31:00,6.0,-8.0,29.93,SW,228,0.0,0.0,52,0.00,,,0.00,,2013-02-24 03:31:00,
2013-02-23 21:52:00,6.0,-8.0,29.93,SW,228,0.0,0.0,52,0.00,,,0.00,,2013-02-24 03:52:00,
2013-02-23 22:01:00,6.0,-8.0,29.93,SW,228,0.0,0.0,52,0.00,,,0.00,,2013-02-24 04:01:00,
2013-02-23 22:21:00,3.0,-11.0,29.93,SW,228,0.0,3.0,52,0.00,,,0.00,,2013-02-24 04:21:00,
2013-02-23 22:31:00,3.0,-11.0,29.93,SW,228,0.0,0.0,52,0.00,,,0.00,,2013-02-24 04:31:00,
2013-02-23 22:52:00,4.0,-10.0,29.93,SW,228,0.0,0.0,52,0.00,,,0.00,,2013-02-24 04:52:00,
2013-02-23 23:01:00,3.0,-11.0,29.96,SW,228,0.0,0.0,52,0.00,,,0.00,,2013-02-24 05:01:00,
2013-02-23 23:22:00,2.0,-12.0,29.96,SW,228,0.0,0.0,52,0.00,,,0.00,,2013-02-24 05:22:00,
2013-02-23 23:32:00,1.0,-12.0,29.96,SW,228,0.0,0.0,52,0.00,,,0.00,,2013-02-24 05:32:00,
2013-02-23 23:52:00,2.0,-12.0,29.96,SW,228,0.0,0.0,52,0.00,,,0.00,,2013-02-24 05:52:00,